Time;durP1;ratioP1;P1;durP2;ratioP2;P2;SDS_P1;SDS_P2;PMS_P1;PMS_P2;Temp;Humidity;BMP_temperature;BMP_pressure;BME280_temperature;BME280_humidity;BME280_pressure;Samples;Min_cycle;Max_cycle;Signal;HPM_P1;HPM_P2
2022/07/16 00:03:32;;;;;;;2.03;1.07;;;17.40;1.00;;;;;;6285389;22;20426;-90
2022/07/16 00:05:59;;;;;;;1.90;1.07;;;17.40;1.00;;;;;;6285365;22;20509;-91
2022/07/16 00:08:26;;;;;;;6.40;1.73;;;17.40;1.00;;;;;;6286576;22;20411;-90
2022/07/16 00:10:53;;;;;;;2.70;1.40;;;17.40;1.00;;;;;;6286894;22;20498;-91
2022/07/16 00:13:20;;;;;;;1.13;0.80;;;17.40;1.00;;;;;;6287471;22;20439;-90
2022/07/16 00:15:47;;;;;;;2.90;0.97;;;17.40;1.00;;;;;;6287728;22;20439;-90
2022/07/16 00:20:59;;;;;;;1.80;1.00;;;17.20;1.00;;;;;;6288499;22;20411;-90
2022/07/16 00:23:26;;;;;;;1.93;0.80;;;17.20;1.00;;;;;;6290750;22;21206;-91
2022/07/16 00:25:54;;;;;;;3.17;1.03;;;17.20;1.00;;;;;;6260467;22;21202;-90
2022/07/16 00:28:21;;;;;;;2.73;1.10;;;17.20;1.00;;;;;;6288539;22;21097;-89
2022/07/16 00:30:48;;;;;;;1.47;1.10;;;17.20;1.00;;;;;;6287989;22;20986;-90
2022/07/16 00:33:15;;;;;;;1.10;0.80;;;17.10;1.00;;;;;;6288800;22;20415;-90
2022/07/16 00:35:42;;;;;;;3.10;1.10;;;17.10;1.00;;;;;;6289075;22;20425;-90
2022/07/16 00:38:12;;;;;;;1.73;1.00;;;17.10;1.00;;;;;;6289788;22;20383;-89
2022/07/16 00:40:39;;;;;;;2.17;1.20;;;17.10;1.00;;;;;;6288778;22;20396;-90
2022/07/16 00:43:11;;;;;;;3.13;1.40;;;17.10;1.00;;;;;;6286914;22;20503;-91
2022/07/16 00:45:38;;;;;;;2.27;1.30;;;17.10;1.00;;;;;;6285294;22;20513;-90
2022/07/16 00:48:06;;;;;;;2.17;0.90;;;17.10;1.00;;;;;;6286242;22;20422;-90
2022/07/16 00:50:34;;;;;;;2.00;0.90;;;17.10;1.00;;;;;;6288938;22;20391;-90
2022/07/16 00:53:01;;;;;;;1.40;1.20;;;17.10;1.00;;;;;;6287584;22;20526;-90
2022/07/16 00:55:30;;;;;;;3.83;1.57;;;17.10;1.00;;;;;;6260200;22;20431;-91
2022/07/16 00:57:57;;;;;;;1.07;0.90;;;17.00;1.00;;;;;;6286287;22;20580;-91
2022/07/16 01:00:25;;;;;;;1.90;1.17;;;17.00;1.00;;;;;;6287911;22;20458;-90
2022/07/16 01:02:52;;;;;;;2.03;1.07;;;17.00;1.00;;;;;;6287366;22;20434;-90
2022/07/16 01:05:19;;;;;;;1.23;0.93;;;17.00;1.00;;;;;;6287722;22;20427;-90
2022/07/16 01:07:47;;;;;;;2.23;1.37;;;17.00;1.00;;;;;;6287019;22;20510;-90
2022/07/16 01:10:14;;;;;;;1.40;1.03;;;16.90;1.00;;;;;;6286530;22;21199;-90
2022/07/16 01:12:43;;;;;;;3.23;1.03;;;16.90;1.00;;;;;;6286386;22;20435;-91
2022/07/16 01:15:10;;;;;;;1.20;1.10;;;16.90;1.00;;;;;;6287141;22;20489;-90
2022/07/16 01:17:38;;;;;;;1.33;1.00;;;16.90;1.00;;;;;;6286872;22;20418;-90
2022/07/16 01:20:07;;;;;;;1.57;0.93;;;16.90;1.00;;;;;;6287854;22;21261;-90
2022/07/16 01:22:34;;;;;;;3.00;1.60;;;16.90;1.00;;;;;;6287839;22;20409;-90
2022/07/16 01:25:02;;;;;;;1.57;1.10;;;16.90;1.00;;;;;;6286233;22;20423;-89
2022/07/16 01:27:29;;;;;;;2.20;1.00;;;16.90;1.00;;;;;;6288196;22;20449;-90
2022/07/16 01:29:56;;;;;;;1.20;0.90;;;16.90;1.00;;;;;;6284061;22;20462;-89
2022/07/16 01:32:23;;;;;;;1.30;0.87;;;16.80;1.00;;;;;;6288063;22;20431;-90
2022/07/16 01:34:50;;;;;;;2.53;1.10;;;16.80;1.00;;;;;;6288235;22;21301;-90
2022/07/16 01:37:17;;;;;;;1.40;0.90;;;16.80;1.00;;;;;;6289356;22;20411;-89
2022/07/16 01:39:44;;;;;;;1.60;0.80;;;16.80;1.00;;;;;;6288087;22;20533;-90
2022/07/16 01:42:12;;;;;;;2.10;1.00;;;16.80;1.00;;;;;;6290274;22;20406;-88
2022/07/16 01:44:39;;;;;;;1.50;0.90;;;16.80;1.00;;;;;;6290585;22;20399;-89
2022/07/16 01:47:07;;;;;;;1.97;1.33;;;16.80;1.00;;;;;;6293675;22;20505;-90
2022/07/16 01:49:36;;;;;;;1.40;1.00;;;16.80;1.00;;;;;;6292066;22;20470;-88
2022/07/16 01:52:08;;;;;;;3.97;1.50;;;16.70;1.00;;;;;;6296123;22;20423;-90
2022/07/16 01:54:36;;;;;;;1.47;1.23;;;16.70;1.00;;;;;;6296972;22;20459;-89
2022/07/16 01:57:03;;;;;;;1.60;0.90;;;16.70;1.00;;;;;;6297410;22;20907;-90
2022/07/16 01:59:31;;;;;;;1.10;0.77;;;16.70;1.00;;;;;;6290362;22;20455;-89
2022/07/16 02:01:58;;;;;;;1.07;0.97;;;16.70;1.00;;;;;;6287468;22;20415;-89
2022/07/16 02:04:25;;;;;;;1.73;1.13;;;16.70;1.00;;;;;;6288000;22;20467;-90
2022/07/16 02:06:52;;;;;;;1.77;1.00;;;16.60;1.00;;;;;;6287168;22;20899;-90
2022/07/16 02:09:19;;;;;;;1.17;0.90;;;16.60;1.00;;;;;;6286733;22;20439;-90
2022/07/16 02:11:46;;;;;;;2.03;1.27;;;16.60;1.00;;;;;;6286491;22;20473;-90
2022/07/16 02:14:13;;;;;;;1.77;1.07;;;16.60;1.00;;;;;;6293075;22;20431;-90
2022/07/16 02:16:43;;;;;;;1.53;1.20;;;16.60;1.00;;;;;;6291463;22;20435;-89
2022/07/16 02:19:10;;;;;;;2.20;1.17;;;16.60;1.00;;;;;;6293895;22;20445;-89
2022/07/16 02:21:42;;;;;;;1.80;1.07;;;16.60;1.00;;;;;;6293578;22;20388;-90
2022/07/16 02:24:09;;;;;;;1.67;1.37;;;16.60;1.00;;;;;;6292831;22;20398;-87
2022/07/16 02:26:38;;;;;;;2.33;1.03;;;16.60;1.00;;;;;;6290755;22;21093;-91
2022/07/16 02:29:05;;;;;;;2.30;1.10;;;16.70;1.00;;;;;;6289646;22;20645;-88
2022/07/16 02:31:33;;;;;;;1.70;1.03;;;16.70;1.00;;;;;;6289108;22;20899;-88
2022/07/16 02:34:03;;;;;;;1.53;1.00;;;16.70;1.00;;;;;;6288484;22;20486;-88
2022/07/16 02:36:29;;;;;;;2.17;1.23;;;16.80;1.00;;;;;;6288890;22;20433;-89
2022/07/16 02:39:01;;;;;;;1.40;1.10;;;16.70;1.00;;;;;;6287517;22;20431;-89
2022/07/16 02:41:28;;;;;;;1.50;1.00;;;16.60;1.00;;;;;;6290343;22;20891;-89
2022/07/16 02:43:54;;;;;;;1.20;1.00;;;16.60;1.00;;;;;;6292010;22;20443;-91
2022/07/16 02:46:21;;;;;;;1.23;1.13;;;16.60;1.00;;;;;;6290712;22;20465;-91
2022/07/16 02:48:48;;;;;;;1.17;0.93;;;16.60;1.00;;;;;;6290207;22;21056;-90
2022/07/16 02:51:21;;;;;;;2.57;1.50;;;16.50;1.00;;;;;;6291237;22;20442;-90
2022/07/16 02:53:48;;;;;;;1.47;1.00;;;16.50;1.00;;;;;;6291052;22;20521;-90
2022/07/16 02:56:15;;;;;;;2.17;1.10;;;16.50;1.00;;;;;;6292304;22;20843;-89
2022/07/16 02:58:42;;;;;;;1.97;1.40;;;16.50;1.00;;;;;;6289169;22;20911;-90
2022/07/16 03:01:12;;;;;;;3.93;1.30;;;16.40;1.00;;;;;;6290862;22;20375;-90
2022/07/16 03:03:39;;;;;;;3.33;1.20;;;16.40;1.00;;;;;;6290464;22;20938;-91
2022/07/16 03:06:12;;;;;;;1.20;1.00;;;16.40;1.00;;;;;;6290424;22;20481;-89
2022/07/16 03:08:40;;;;;;;1.67;0.90;;;16.40;1.00;;;;;;6290111;22;20402;-90
2022/07/16 03:11:17;;;;;;;2.50;1.37;;;16.40;1.00;;;;;;6290029;22;20459;-91
2022/07/16 03:13:44;;;;;;;1.90;0.97;;;16.50;1.00;;;;;;6288017;22;20434;-90
2022/07/16 03:16:14;;;;;;;1.33;1.00;;;16.50;1.00;;;;;;6291178;22;20383;-90
2022/07/16 03:18:41;;;;;;;1.30;1.10;;;16.40;1.00;;;;;;6289211;22;21282;-90
2022/07/16 03:21:12;;;;;;;1.73;1.03;;;16.40;1.00;;;;;;6290793;22;20431;-91
2022/07/16 03:23:41;;;;;;;1.57;1.10;;;16.40;1.00;;;;;;6289054;22;20497;-88
2022/07/16 03:26:13;;;;;;;1.73;1.30;;;16.40;1.00;;;;;;6289088;22;20477;-90
2022/07/16 03:28:39;;;;;;;2.23;1.00;;;16.30;1.00;;;;;;6288953;22;20415;-89
2022/07/16 03:31:15;;;;;;;1.63;0.80;;;16.40;1.00;;;;;;6289519;22;20817;-89
2022/07/16 03:33:42;;;;;;;1.90;1.20;;;16.40;1.00;;;;;;6290854;22;20489;-89
2022/07/16 03:36:14;;;;;;;1.50;1.37;;;16.40;1.00;;;;;;6291515;22;20504;-88
2022/07/16 03:39:02;;;;;;;1.20;0.80;;;16.30;1.00;;;;;;6289667;22;20517;-89
2022/07/16 03:41:37;;;;;;;2.97;1.40;;;16.30;1.00;;;;;;6292320;22;20408;-90
2022/07/16 03:44:11;;;;;;;2.40;1.00;;;16.30;1.00;;;;;;6291205;22;20417;-90
2022/07/16 03:46:38;;;;;;;1.00;0.90;;;16.30;1.00;;;;;;6295707;22;20822;-89
2022/07/16 03:49:12;;;;;;;1.20;0.97;;;16.30;1.00;;;;;;6295702;22;20451;-90
2022/07/16 03:51:39;;;;;;;1.40;1.10;;;16.30;1.00;;;;;;6293515;22;20751;-90
2022/07/16 03:54:12;;;;;;;2.20;1.10;;;16.20;1.00;;;;;;6293995;22;20502;-90
2022/07/16 03:56:39;;;;;;;1.80;1.20;;;16.00;1.00;;;;;;6291063;22;20431;-90
2022/07/16 03:59:15;;;;;;;2.40;1.03;;;15.90;1.00;;;;;;6290624;22;20423;-90
2022/07/16 04:01:42;;;;;;;1.00;0.90;;;15.70;1.00;;;;;;6290493;22;20545;-89
2022/07/16 04:04:18;;;;;;;1.23;1.00;;;15.60;1.00;;;;;;6288350;22;20395;-90
2022/07/16 04:06:45;;;;;;;2.30;1.00;;;15.60;1.00;;;;;;6288862;22;20494;-89
2022/07/16 04:09:14;;;;;;;1.47;1.30;;;15.60;1.00;;;;;;6292246;22;20399;-90
2022/07/16 04:11:41;;;;;;;1.27;0.97;;;15.70;1.00;;;;;;6285244;22;20399;-90
2022/07/16 04:14:08;;;;;;;2.47;0.90;;;15.60;1.00;;;;;;6292402;22;20451;-90
2022/07/16 04:16:38;;;;;;;2.07;1.43;;;15.60;1.00;;;;;;6276438;22;20426;-91
2022/07/16 04:19:16;;;;;;;2.90;1.23;;;15.60;1.00;;;;;;6268684;22;20472;-90
2022/07/16 04:21:48;;;;;;;2.50;1.53;;;15.60;1.00;;;;;;6284646;22;20391;-91
2022/07/16 04:24:21;;;;;;;1.13;1.00;;;15.70;1.00;;;;;;6274347;22;20434;-91
2022/07/16 04:26:51;;;;;;;1.67;1.20;;;15.80;1.00;;;;;;6288533;22;20401;-90
2022/07/16 04:29:18;;;;;;;1.43;1.20;;;15.90;1.00;;;;;;6278107;22;20395;-91
2022/07/16 04:31:49;;;;;;;2.90;1.20;;;16.00;1.00;;;;;;6282470;22;20419;-91
2022/07/16 04:34:19;;;;;;;1.63;1.00;;;16.00;1.00;;;;;;6283377;22;20399;-91
2022/07/16 04:36:49;;;;;;;2.10;1.40;;;16.10;1.00;;;;;;6271844;22;20965;-91
2022/07/16 04:39:20;;;;;;;1.20;0.97;;;16.20;1.00;;;;;;6283659;22;20406;-90
2022/07/16 04:41:48;;;;;;;3.53;1.30;;;16.30;1.00;;;;;;6293456;22;20422;-90
2022/07/16 04:44:18;;;;;;;1.17;0.80;;;16.40;1.00;;;;;;6289496;22;20427;-90
2022/07/16 04:46:48;;;;;;;1.70;1.43;;;16.40;1.00;;;;;;6293336;22;20395;-89
2022/07/16 04:49:20;;;;;;;2.37;1.03;;;16.40;1.00;;;;;;6284121;22;20495;-90
2022/07/16 04:51:49;;;;;;;1.27;0.90;;;16.40;1.00;;;;;;6272540;22;20395;-90
2022/07/16 04:54:15;;;;;;;1.17;0.90;;;16.50;1.00;;;;;;6277645;22;20465;-90
2022/07/16 04:56:46;;;;;;;1.33;1.10;;;16.40;1.00;;;;;;6289531;22;20395;-91
2022/07/16 04:59:13;;;;;;;1.60;1.50;;;16.40;1.00;;;;;;6291705;22;20858;-90
2022/07/16 05:01:50;;;;;;;2.53;1.00;;;16.40;1.00;;;;;;6288971;22;20645;-90
2022/07/16 05:04:17;;;;;;;1.37;1.10;;;16.40;1.00;;;;;;6291329;22;21003;-90
2022/07/16 05:06:46;;;;;;;1.40;1.10;;;16.30;1.00;;;;;;6290379;22;20401;-90
2022/07/16 05:09:21;;;;;;;3.93;1.00;;;16.30;1.00;;;;;;6291686;22;20383;-90
2022/07/16 05:11:49;;;;;;;1.87;1.10;;;16.40;1.00;;;;;;6290846;22;20465;-91
2022/07/16 05:14:16;;;;;;;5.93;1.00;;;16.40;1.00;;;;;;6291201;22;20490;-90
2022/07/16 05:16:45;;;;;;;2.10;1.20;;;16.40;1.00;;;;;;6289926;22;20868;-89
2022/07/16 05:19:12;;;;;;;1.97;1.20;;;16.40;1.00;;;;;;6291209;22;20391;-90
2022/07/16 05:21:48;;;;;;;3.03;1.10;;;16.50;1.00;;;;;;6287898;22;20473;-90
2022/07/16 05:24:15;;;;;;;1.20;1.10;;;16.50;1.00;;;;;;6289232;22;20981;-90
2022/07/16 05:26:42;;;;;;;2.40;1.17;;;16.50;1.00;;;;;;6291487;22;20395;-90
2022/07/16 05:29:12;;;;;;;4.90;1.20;;;16.70;1.00;;;;;;6292296;22;20787;-90
2022/07/16 05:31:45;;;;;;;4.50;1.13;;;16.80;1.00;;;;;;6289815;22;20494;-89
2022/07/16 05:34:13;;;;;;;2.60;1.03;;;16.90;1.00;;;;;;6290200;22;20489;-89
2022/07/16 05:36:45;;;;;;;2.83;0.93;;;16.80;1.00;;;;;;6288723;22;20407;-89
2022/07/16 05:39:19;;;;;;;2.40;1.20;;;16.90;1.00;;;;;;6289891;22;20395;-89
2022/07/16 05:41:45;;;;;;;1.13;0.93;;;17.00;1.00;;;;;;6288082;22;20433;-89
2022/07/16 05:44:17;;;;;;;2.07;1.00;;;17.10;1.00;;;;;;6290517;22;20410;-89
2022/07/16 05:46:44;;;;;;;2.57;1.20;;;17.30;1.00;;;;;;6289404;22;20437;-88
2022/07/16 05:49:15;;;;;;;1.00;0.90;;;17.40;1.00;;;;;;6290299;22;20447;-89
2022/07/16 05:51:42;;;;;;;2.10;1.50;;;17.50;1.00;;;;;;6288105;22;20856;-89
2022/07/16 05:54:13;;;;;;;1.87;1.00;;;17.50;1.00;;;;;;6288315;22;20457;-89
2022/07/16 05:56:40;;;;;;;1.50;1.03;;;17.50;1.00;;;;;;6287522;22;20403;-89
2022/07/16 05:59:07;;;;;;;1.93;1.07;;;17.60;1.00;;;;;;6289521;22;20411;-89
2022/07/16 06:01:53;;;;;;;2.57;1.67;;;17.50;1.00;;;;;;6290421;22;20395;-89
2022/07/16 06:04:25;;;;;;;1.50;1.40;;;17.60;1.00;;;;;;6287555;22;20390;-89
2022/07/16 06:06:52;;;;;;;3.10;1.43;;;17.50;1.00;;;;;;6289630;22;20439;-90
2022/07/16 06:09:23;;;;;;;2.97;1.57;;;17.40;1.00;;;;;;6290002;22;20446;-89
2022/07/16 06:11:50;;;;;;;2.97;1.80;;;17.40;1.00;;;;;;6289851;22;20423;-90
2022/07/16 06:14:17;;;;;;;2.17;1.60;;;17.30;1.00;;;;;;6289648;22;20419;-90
2022/07/16 06:16:49;;;;;;;3.80;1.63;;;17.00;1.00;;;;;;6294965;22;20371;-89
2022/07/16 06:19:16;;;;;;;2.43;2.07;;;16.60;1.00;;;;;;6291277;22;20445;-89
2022/07/16 06:21:46;;;;;;;3.67;2.47;;;16.30;1.00;;;;;;6291863;22;20394;-90
2022/07/16 06:24:13;;;;;;;3.50;2.30;;;16.00;1.00;;;;;;6293580;22;20435;-89
2022/07/16 06:26:46;;;;;;;3.30;2.30;;;15.80;1.00;;;;;;6290213;22;20419;-89
2022/07/16 06:29:14;;;;;;;5.57;2.40;;;15.50;1.00;;;;;;6290288;22;20740;-88
2022/07/16 06:31:49;;;;;;;3.53;2.00;;;15.30;1.00;;;;;;6288828;22;20382;-91
2022/07/16 06:34:16;;;;;;;2.60;2.03;;;15.20;1.00;;;;;;6292379;22;20426;-89
2022/07/16 06:36:45;;;;;;;3.03;2.30;;;15.20;1.00;;;;;;6292659;22;20388;-90
2022/07/16 06:39:12;;;;;;;4.00;2.20;;;15.10;1.00;;;;;;6291296;22;20509;-88
2022/07/16 06:41:44;;;;;;;3.23;2.57;;;15.00;1.00;;;;;;6288690;22;20497;-89
2022/07/16 06:44:11;;;;;;;2.77;2.57;;;14.90;1.00;;;;;;6289853;22;20409;-89
2022/07/16 06:46:38;;;;;;;3.57;2.47;;;14.90;1.00;;;;;;6291476;22;21024;-89
2022/07/16 06:49:07;;;;;;;5.37;3.23;;;14.90;1.00;;;;;;6290450;22;20391;-90
2022/07/16 06:51:36;;;;;;;3.60;2.80;;;14.80;1.00;;;;;;6293197;22;20450;-89
2022/07/16 06:54:05;;;;;;;3.80;2.60;;;14.70;1.00;;;;;;6294933;22;20458;-90
2022/07/16 06:56:32;;;;;;;3.20;2.43;;;14.70;1.00;;;;;;6291390;22;20435;-89
2022/07/16 06:59:04;;;;;;;4.40;2.80;;;14.70;1.00;;;;;;6289229;22;20415;-89
2022/07/16 07:01:30;;;;;;;5.33;3.23;;;14.70;1.00;;;;;;6293069;22;20395;-90
2022/07/16 07:03:57;;;;;;;4.90;2.97;;;14.70;1.00;;;;;;6290591;22;20399;-90
2022/07/16 07:06:27;;;;;;;4.60;3.30;;;14.80;1.00;;;;;;6293693;22;20467;-89
2022/07/16 07:08:54;;;;;;;5.17;3.10;;;14.80;1.00;;;;;;6291247;22;20447;-89
2022/07/16 07:11:25;;;;;;;3.70;3.10;;;14.90;1.00;;;;;;6290904;22;20388;-89
2022/07/16 07:13:52;;;;;;;4.20;3.40;;;15.20;1.00;;;;;;6288765;22;21051;-91
2022/07/16 07:16:27;;;;;;;5.73;2.73;;;15.30;1.00;;;;;;6290758;22;20922;-88
2022/07/16 07:18:54;;;;;;;3.77;3.20;;;15.40;1.00;;;;;;6289669;22;20419;-90
2022/07/16 07:21:26;;;;;;;5.20;3.13;;;15.50;1.00;;;;;;6290620;22;20415;-90
2022/07/16 07:23:54;;;;;;;4.87;3.20;;;15.50;1.00;;;;;;6291926;22;20485;-89
2022/07/16 07:26:27;;;;;;;6.07;3.70;;;15.60;1.00;;;;;;6290604;22;20387;-90
2022/07/16 07:28:53;;;;;;;4.93;3.30;;;15.70;1.00;;;;;;6291233;22;20489;-90
2022/07/16 07:31:25;;;;;;;5.30;3.63;;;15.70;1.00;;;;;;6292669;22;20391;-90
2022/07/16 07:33:52;;;;;;;5.97;3.60;;;15.90;1.00;;;;;;6289135;22;20489;-89
2022/07/16 07:36:26;;;;;;;3.33;2.90;;;16.00;1.00;;;;;;6291904;22;20419;-89
2022/07/16 07:38:54;;;;;;;4.30;2.70;;;16.20;1.00;;;;;;6291230;22;20391;-89
2022/07/16 07:41:31;;;;;;;3.87;3.10;;;16.40;1.00;;;;;;6291144;22;20435;-89
2022/07/16 07:43:58;;;;;;;5.80;3.17;;;16.60;1.00;;;;;;6290436;22;20483;-88
2022/07/16 07:46:27;;;;;;;4.33;2.73;;;16.70;1.00;;;;;;6293283;22;20598;-89
2022/07/16 07:48:54;;;;;;;3.87;2.80;;;16.80;1.00;;;;;;6291495;22;20908;-89
2022/07/16 07:51:25;;;;;;;3.73;3.33;;;17.00;1.00;;;;;;6292445;22;20398;-88
2022/07/16 07:53:54;;;;;;;5.73;3.13;;;17.10;1.00;;;;;;6291629;22;20481;-89
2022/07/16 07:56:21;;;;;;;3.77;3.07;;;16.90;1.00;;;;;;6292703;22;20389;-89
2022/07/16 07:58:48;;;;;;;2.83;2.60;;;16.90;1.00;;;;;;6289207;22;20419;-88
2022/07/16 08:01:16;;;;;;;3.07;2.40;;;17.00;1.00;;;;;;6291420;22;20419;-90
2022/07/16 08:03:46;;;;;;;4.90;4.23;;;17.30;1.00;;;;;;6292232;22;20394;-89
2022/07/16 08:06:13;;;;;;;3.23;2.80;;;17.50;1.00;;;;;;6292422;22;20418;-89
2022/07/16 08:08:45;;;;;;;2.70;2.40;;;17.60;1.00;;;;;;6289273;22;20414;-90
2022/07/16 08:11:14;;;;;;;3.93;2.70;;;17.50;1.00;;;;;;6291190;22;20430;-90
2022/07/16 08:13:46;;;;;;;2.93;2.63;;;17.70;1.00;;;;;;6291140;22;20403;-88
2022/07/16 08:16:12;;;;;;;3.30;2.77;;;17.90;1.00;;;;;;6290103;22;20395;-89
2022/07/16 08:18:44;;;;;;;4.37;3.00;;;17.90;1.00;;;;;;6290271;22;20871;-89
2022/07/16 08:21:11;;;;;;;3.03;2.63;;;17.90;1.00;;;;;;6292453;22;20434;-89
2022/07/16 08:26:26;;;;;;;2.60;2.23;;;18.00;1.00;;;;;;6292164;22;20386;-89
2022/07/16 08:28:54;;;;;;;2.67;2.47;;;18.40;1.00;;;;;;6291156;22;20448;-90
2022/07/16 08:31:27;;;;;;;2.50;2.30;;;18.60;1.00;;;;;;6292255;22;20489;-89
2022/07/16 08:33:56;;;;;;;2.23;1.90;;;18.60;1.00;;;;;;6291458;22;20529;-89
2022/07/16 08:36:26;;;;;;;2.80;2.23;;;18.40;1.00;;;;;;6292964;22;20407;-89
2022/07/16 08:38:53;;;;;;;3.17;2.40;;;18.50;1.00;;;;;;6276361;22;20411;-88
2022/07/16 08:41:23;;;;;;;1.70;1.53;;;18.50;1.00;;;;;;6286682;22;20435;-89
2022/07/16 08:43:50;;;;;;;2.30;2.10;;;18.40;1.00;;;;;;6254408;22;20434;-89
2022/07/16 08:46:23;;;;;;;3.43;1.80;;;18.60;1.00;;;;;;6285981;22;20411;-90
2022/07/16 08:48:50;;;;;;;3.07;2.00;;;18.90;1.00;;;;;;6284755;22;20926;-89
2022/07/16 08:51:21;;;;;;;1.97;1.87;;;19.20;1.00;;;;;;6287295;22;20888;-90
2022/07/16 08:53:54;;;;;;;3.00;1.40;;;19.60;1.00;;;;;;6287179;22;20839;-89
2022/07/16 08:56:22;;;;;;;6.00;1.93;;;20.00;1.00;;;;;;6289936;22;20411;-89
2022/07/16 08:58:49;;;;;;;3.20;1.50;;;20.20;1.00;;;;;;6277198;22;20418;-90
2022/07/16 09:01:16;;;;;;;2.23;1.80;;;20.30;1.00;;;;;;6290665;22;20455;-91
2022/07/16 09:03:44;;;;;;;3.47;2.70;;;20.30;1.00;;;;;;6296347;22;20498;-91
2022/07/16 09:06:15;;;;;;;3.93;1.60;;;20.30;1.00;;;;;;6290892;22;20391;-90
2022/07/16 09:08:42;;;;;;;2.47;1.50;;;20.10;1.00;;;;;;6289437;22;20447;-90
2022/07/16 09:11:19;;;;;;;1.80;1.40;;;20.10;1.00;;;;;;6291929;22;20532;-89
2022/07/16 09:14:05;;;;;;;2.20;1.83;;;20.10;1.00;;;;;;6288821;22;20403;-89
2022/07/16 09:16:37;;;;;;;3.33;2.50;;;20.10;1.00;;;;;;6290386;22;20459;-89
2022/07/16 09:19:08;;;;;;;2.73;1.27;;;20.40;1.00;;;;;;6287031;22;20442;-90
2022/07/16 09:21:36;;;;;;;2.47;1.60;;;20.50;1.00;;;;;;6293204;22;20376;-90
2022/07/16 09:24:04;;;;;;;1.37;1.27;;;20.50;1.00;;;;;;6291967;22;20438;-90
2022/07/16 09:26:35;;;;;;;1.30;1.20;;;20.40;1.00;;;;;;6291153;22;20395;-89
2022/07/16 09:29:05;;;;;;;1.80;1.07;;;20.40;1.00;;;;;;6292395;22;20399;-89
2022/07/16 09:31:39;;;;;;;1.67;1.57;;;20.60;1.00;;;;;;6291849;22;20402;-89
2022/07/16 09:34:08;;;;;;;1.23;1.13;;;20.70;1.00;;;;;;6289915;22;20390;-90
2022/07/16 09:36:37;;;;;;;1.40;1.30;;;21.10;1.00;;;;;;6291341;22;20390;-89
2022/07/16 09:39:06;;;;;;;1.50;1.10;;;21.20;1.00;;;;;;6291446;22;20422;-90
2022/07/16 09:41:45;;;;;;;1.10;1.00;;;21.50;1.00;;;;;;6293921;22;20427;-89
2022/07/16 09:44:19;;;;;;;2.50;1.50;;;22.10;1.00;;;;;;6291514;22;20399;-90
2022/07/16 09:47:05;;;;;;;1.60;1.20;;;23.20;1.00;;;;;;6292169;22;20511;-90
2022/07/16 09:49:38;;;;;;;1.67;1.37;;;24.20;1.00;;;;;;6294966;22;20426;-89
2022/07/16 09:52:29;;;;;;;2.47;1.30;;;25.30;1.00;;;;;;6287778;22;20446;-89
2022/07/16 09:55:01;;;;;;;2.70;0.93;;;26.40;1.00;;;;;;6274474;22;20463;-90
2022/07/16 09:57:31;;;;;;;4.10;1.50;;;26.90;1.00;;;;;;6294551;22;20458;-88
2022/07/16 10:00:04;;;;;;;2.93;1.30;;;26.10;1.00;;;;;;6289709;22;20408;-89
2022/07/16 10:02:36;;;;;;;3.37;0.90;;;24.90;1.00;;;;;;6291879;22;20508;-90
2022/07/16 10:05:03;;;;;;;2.53;1.23;;;24.30;1.00;;;;;;6291411;22;20906;-91
2022/07/16 10:07:35;;;;;;;1.13;0.90;;;25.20;1.00;;;;;;6274864;22;20443;-92
2022/07/16 10:10:06;;;;;;;1.40;1.10;;;25.30;1.00;;;;;;6289532;22;20813;-91
2022/07/16 10:12:36;;;;;;;1.27;0.90;;;25.50;1.00;;;;;;6294724;22;20383;-91
2022/07/16 10:15:05;;;;;;;1.13;1.00;;;25.10;1.00;;;;;;6266381;22;20486;-91
2022/07/16 10:17:39;;;;;;;1.00;0.90;;;26.30;1.00;;;;;;6292912;22;20581;-90
2022/07/16 10:20:09;;;;;;;1.90;1.00;;;27.30;1.00;;;;;;6287326;22;20430;-90
2022/07/16 10:22:41;;;;;;;1.73;0.80;;;28.00;1.00;;;;;;6291839;22;20403;-90
2022/07/16 10:25:14;;;;;;;3.93;1.20;;;28.40;1.00;;;;;;6289466;22;20438;-90
2022/07/16 10:27:42;;;;;;;1.53;1.10;;;28.60;1.00;;;;;;6287372;22;20379;-86
2022/07/16 10:30:14;;;;;;;1.37;1.27;;;28.60;1.00;;;;;;6289668;22;20419;-90
2022/07/16 10:33:10;;;;;;;3.57;1.60;;;29.60;1.00;;;;;;6291075;22;20384;-89
2022/07/16 10:35:39;;;;;;;1.90;0.83;;;29.20;1.00;;;;;;6252768;22;20439;-89
2022/07/16 10:38:09;;;;;;;2.20;1.00;;;28.80;1.00;;;;;;6289964;22;20383;-90
2022/07/16 10:40:37;;;;;;;1.50;1.17;;;27.50;1.00;;;;;;6290391;22;20399;-90
2022/07/16 10:43:17;;;;;;;2.90;0.97;;;26.40;1.00;;;;;;6294446;22;20441;-89
2022/07/16 10:45:58;;;;;;;2.07;1.00;;;26.90;1.00;;;;;;6292183;22;20443;-90
2022/07/16 10:48:27;;;;;;;1.60;1.00;;;26.90;1.00;;;;;;6292124;22;20410;-90
2022/07/16 10:51:16;;;;;;;1.30;1.00;;;27.30;1.00;;;;;;6291977;22;20391;-91
2022/07/16 10:54:19;;;;;;;1.27;0.87;;;27.50;1.00;;;;;;6292254;22;20427;-89
2022/07/16 10:56:47;;;;;;;3.10;1.10;;;26.80;1.00;;;;;;6291146;22;20402;-89
2022/07/16 10:59:19;;;;;;;1.83;1.00;;;25.50;1.00;;;;;;6292949;22;20446;-90
2022/07/16 11:01:57;;;;;;;2.27;1.20;;;25.90;1.00;;;;;;6291862;22;20418;-90
2022/07/16 11:04:35;;;;;;;1.70;0.93;;;27.60;1.00;;;;;;6293031;22;20426;-90
2022/07/16 11:07:07;;;;;;;1.23;1.03;;;28.40;1.00;;;;;;6292461;22;20518;-91
2022/07/16 11:09:38;;;;;;;2.07;1.33;;;29.00;1.00;;;;;;6294072;22;20390;-91
2022/07/16 11:12:25;;;;;;;1.80;0.87;;;29.00;1.00;;;;;;6292317;22;20497;-88
2022/07/16 11:15:00;;;;;;;2.90;1.00;;;28.40;1.00;;;;;;6293362;22;20375;-90
2022/07/16 11:17:39;;;;;;;2.20;1.17;;;26.70;1.00;;;;;;6293464;22;20486;-90
2022/07/16 11:20:09;;;;;;;1.63;1.03;;;24.80;1.00;;;;;;6291412;22;20422;-92
2022/07/16 11:22:36;;;;;;;3.30;1.17;;;23.90;1.00;;;;;;6291397;22;20411;-91
2022/07/16 11:25:05;;;;;;;4.27;1.07;;;23.40;1.00;;;;;;6293444;22;20480;-90
2022/07/16 11:27:46;;;;;;;3.00;1.23;;;23.40;1.00;;;;;;6293418;22;20406;-89
2022/07/16 11:30:16;;;;;;;2.03;1.17;;;24.50;1.00;;;;;;6289965;22;20449;-90
2022/07/16 11:32:45;;;;;;;1.23;1.00;;;26.50;1.00;;;;;;6292855;22;20415;-90
2022/07/16 11:35:18;;;;;;;2.43;0.90;;;28.60;1.00;;;;;;6290853;22;20403;-91
2022/07/16 11:37:57;;;;;;;1.33;1.10;;;29.90;1.00;;;;;;6293320;22;20443;-89
2022/07/16 11:40:37;;;;;;;2.50;1.40;;;31.10;1.00;;;;;;6294556;22;20389;-89
2022/07/16 11:43:05;;;;;;;2.30;1.17;;;30.20;1.00;;;;;;6289559;22;21036;-89
2022/07/16 11:45:40;;;;;;;2.20;1.33;;;28.80;1.00;;;;;;6293600;22;20387;-89
2022/07/16 11:48:20;;;;;;;1.73;0.80;;;28.10;1.00;;;;;;6293270;22;21000;-90
2022/07/16 11:50:48;;;;;;;1.40;0.83;;;28.90;1.00;;;;;;6292154;22;20826;-89
2022/07/16 11:53:37;;;;;;;1.53;0.80;;;28.60;1.00;;;;;;6293877;22;20453;-89
2022/07/16 11:56:05;;;;;;;2.47;1.20;;;27.50;1.00;;;;;;6250128;22;20422;-90
2022/07/16 11:58:36;;;;;;;1.57;1.10;;;26.40;1.00;;;;;;6294290;22;20395;-90
2022/07/16 12:01:03;;;;;;;3.00;1.07;;;25.60;1.00;;;;;;6292702;22;20426;-89
2022/07/16 12:03:32;;;;;;;2.40;0.80;;;26.40;1.00;;;;;;6294675;22;20471;-89
2022/07/16 12:06:08;;;;;;;1.50;1.03;;;27.90;1.00;;;;;;6292742;22;21071;-90
2022/07/16 12:08:36;;;;;;;3.07;1.20;;;28.50;1.00;;;;;;6294587;22;20395;-91
2022/07/16 12:11:06;;;;;;;1.60;0.93;;;29.30;1.00;;;;;;6292650;22;20471;-90
2022/07/16 12:13:39;;;;;;;1.77;0.90;;;30.20;1.00;;;;;;6295803;22;20470;-90
2022/07/16 12:16:06;;;;;;;1.63;0.80;;;30.80;1.00;;;;;;6287940;22;20431;-90
2022/07/16 12:18:34;;;;;;;2.27;1.30;;;30.40;1.00;;;;;;6288354;22;20403;-90
2022/07/16 12:24:43;;;;;;;1.83;0.83;;;31.40;1.00;;;;;;6235917;22;20418;-91
2022/07/16 12:27:12;;;;;;;2.03;0.93;;;32.60;1.00;;;;;;6292084;22;20522;-90
2022/07/16 12:29:42;;;;;;;1.63;1.10;;;31.70;1.00;;;;;;6288042;22;20442;-90
2022/07/16 12:32:09;;;;;;;1.90;0.90;;;29.60;1.00;;;;;;6289675;22;20407;-89
2022/07/16 12:34:44;;;;;;;3.57;1.23;;;27.70;1.00;;;;;;6290056;22;20481;-89
2022/07/16 12:37:15;;;;;;;2.00;0.73;;;28.30;1.00;;;;;;6298129;22;20459;-89
2022/07/16 12:39:42;;;;;;;1.57;0.90;;;29.10;1.00;;;;;;6283099;22;20450;-89
2022/07/16 12:42:10;;;;;;;2.93;1.17;;;28.40;1.00;;;;;;6292545;22;20434;-90
2022/07/16 12:44:37;;;;;;;1.60;0.63;;;27.10;1.00;;;;;;6289410;22;20549;-90
2022/07/16 12:47:04;;;;;;;2.27;1.33;;;27.60;1.00;;;;;;6274958;22;20948;-91
2022/07/16 12:49:34;;;;;;;1.67;0.90;;;28.10;1.00;;;;;;6289884;22;20450;-90
2022/07/16 12:52:03;;;;;;;1.40;0.93;;;28.60;1.00;;;;;;6290305;22;20391;-90
2022/07/16 12:58:47;;;;;;;2.20;1.03;;;29.60;1.00;;;;;;6277073;22;20986;-89
2022/07/16 13:00:17;;;;;;;1.67;0.60;;;31.30;1.00;;;;;;6289733;22;20435;-90
2022/07/16 13:02:44;;;;;;;1.47;0.90;;;30.10;1.00;;;;;;6289505;22;20419;-90
2022/07/16 13:05:14;;;;;;;1.60;1.00;;;30.80;1.00;;;;;;6290527;22;20403;-91
2022/07/16 13:07:43;;;;;;;2.63;1.13;;;31.00;1.00;;;;;;6289233;22;20473;-91
2022/07/16 13:10:11;;;;;;;4.27;1.00;;;32.10;1.00;;;;;;6291537;22;20387;-89
2022/07/16 13:12:38;;;;;;;2.60;2.40;;;32.90;1.00;;;;;;6290261;22;20491;-90
2022/07/16 13:15:06;;;;;;;1.00;0.80;;;33.10;1.00;;;;;;6291693;22;20379;-89
2022/07/16 13:17:33;;;;;;;1.77;0.90;;;33.60;1.00;;;;;;6292040;22;20422;-89
2022/07/16 13:20:01;;;;;;;6.80;6.20;;;34.10;1.00;;;;;;6292529;22;20518;-92
2022/07/16 13:22:28;;;;;;;3.80;1.07;;;33.00;1.00;;;;;;6292075;22;20600;-92
2022/07/16 13:24:56;;;;;;;3.17;1.37;;;31.90;1.00;;;;;;6291895;22;20419;-92
2022/07/16 13:27:24;;;;;;;2.13;1.17;;;31.60;1.00;;;;;;6292155;22;21195;-91